createdAt,value
2023-01-20T00:00:17.741Z,0.07
2023-01-20T00:02:44.481Z,0.02
2023-01-20T00:05:11.058Z,0.03
2023-01-20T00:07:37.949Z,0.01
2023-01-20T00:10:04.857Z,-0.02
2023-01-20T00:12:31.914Z,-0.01
2023-01-20T00:14:58.560Z,-0.03
2023-01-20T00:17:25.109Z,-0.02
2023-01-20T00:19:51.504Z,-0.05
2023-01-20T00:22:18.144Z,-0.09
2023-01-20T00:24:44.597Z,-0.12
2023-01-20T00:27:12.207Z,-0.11
2023-01-20T00:29:38.720Z,-0.14
2023-01-20T00:32:05.379Z,-0.16
2023-01-20T00:34:31.829Z,-0.21
2023-01-20T00:36:58.380Z,-0.25
2023-01-20T00:39:24.742Z,-0.23
2023-01-20T00:41:51.265Z,-0.23
2023-01-20T00:44:17.653Z,-0.26
2023-01-20T00:46:44.264Z,-0.21
2023-01-20T00:49:11.282Z,-0.22
2023-01-20T00:51:37.807Z,-0.22
2023-01-20T00:54:04.488Z,-0.23
2023-01-20T00:56:31.122Z,-0.21
2023-01-20T00:58:57.718Z,-0.20
2023-01-20T01:01:24.460Z,-0.16
2023-01-20T01:03:54.372Z,-0.17
2023-01-20T01:06:21.152Z,-0.14
2023-01-20T01:08:47.570Z,-0.19
2023-01-20T01:11:14.491Z,-0.25
2023-01-20T01:13:41.418Z,-0.26
2023-01-20T01:16:14.873Z,-0.19
2023-01-20T01:18:42.324Z,-0.22
2023-01-20T01:21:11.065Z,-0.19
2023-01-20T01:23:37.663Z,-0.07
2023-01-20T01:26:04.410Z,-0.12
2023-01-20T01:28:31.503Z,-0.10
2023-01-20T01:31:02.770Z,-0.19
2023-01-20T01:33:31.628Z,-0.22
2023-01-20T01:35:59.923Z,-0.22
2023-01-20T01:38:27.817Z,-0.22
2023-01-20T01:40:55.183Z,-0.18
2023-01-20T01:43:31.197Z,-0.17
2023-01-20T01:45:58.132Z,-0.16
2023-01-20T01:48:36.833Z,-0.21
2023-01-20T01:51:08.933Z,-0.18
2023-01-20T01:53:53.786Z,-0.16
2023-01-20T01:56:22.901Z,-0.10
2023-01-20T01:58:54.006Z,-0.14
2023-01-20T02:01:20.877Z,-0.17
2023-01-20T02:04:03.324Z,-0.14
2023-01-20T02:06:33.622Z,-0.14
2023-01-20T02:09:04.913Z,-0.15
2023-01-20T02:11:45.240Z,-0.17
2023-01-20T02:14:12.014Z,-0.19
2023-01-20T02:16:41.651Z,-0.23
2023-01-20T02:19:35.822Z,-0.23
2023-01-20T02:22:37.783Z,-0.26
2023-01-20T02:25:33.520Z,-0.31
2023-01-20T02:27:59.867Z,-0.32
2023-01-20T02:30:54.018Z,-0.33
2023-01-20T02:33:30.344Z,-0.36
2023-01-20T02:36:27.044Z,-0.35
2023-01-20T02:39:03.019Z,-0.27
2023-01-20T02:41:49.001Z,-0.27
2023-01-20T02:44:30.820Z,-0.29
2023-01-20T02:47:29.517Z,-0.18
2023-01-20T02:50:12.442Z,-0.13
2023-01-20T02:52:44.268Z,-0.19
2023-01-20T02:55:17.135Z,-0.20
2023-01-20T02:57:51.518Z,-0.24
2023-01-20T03:00:25.592Z,-0.24
2023-01-20T03:02:55.158Z,-0.28
2023-01-20T03:05:27.444Z,-0.29
2023-01-20T03:07:55.543Z,-0.30
2023-01-20T03:10:26.500Z,-0.32
2023-01-20T03:13:41.981Z,-0.32
2023-01-20T03:16:28.371Z,-0.25
2023-01-20T03:18:55.397Z,-0.21
2023-01-20T03:21:21.948Z,-0.22
2023-01-20T03:23:54.378Z,-0.11
2023-01-20T03:26:22.962Z,-0.18
2023-01-20T03:28:49.930Z,-0.21
2023-01-20T03:31:19.043Z,-0.15
2023-01-20T03:33:47.723Z,-0.14
2023-01-20T03:36:16.183Z,-0.13
2023-01-20T03:38:44.929Z,-0.09
2023-01-20T03:41:17.681Z,-0.09
2023-01-20T03:44:11.623Z,-0.09
2023-01-20T03:46:47.153Z,-0.07
2023-01-20T03:49:29.588Z,-0.04
2023-01-20T03:52:08.876Z,-0.04
2023-01-20T03:54:46.667Z,0.00
2023-01-20T03:57:18.316Z,0.01
2023-01-20T03:59:49.184Z,-0.03
2023-01-20T04:02:15.666Z,-0.02
2023-01-20T04:04:45.335Z,-0.05
2023-01-20T04:07:19.132Z,-0.05
2023-01-20T04:09:50.122Z,-0.06
2023-01-20T04:12:16.752Z,-0.02
2023-01-20T04:14:43.196Z,-0.05
2023-01-20T04:17:10.107Z,-0.04
2023-01-20T04:19:36.669Z,-0.07
2023-01-20T04:22:09.705Z,-0.05
2023-01-20T04:24:58.183Z,-0.11
2023-01-20T04:27:24.613Z,-0.15
2023-01-20T04:29:51.103Z,-0.15
2023-01-20T04:32:17.600Z,-0.12
2023-01-20T04:34:44.051Z,-0.12
2023-01-20T04:37:10.601Z,-0.13
2023-01-20T04:39:37.060Z,-0.14
2023-01-20T04:42:03.973Z,-0.13
2023-01-20T04:44:30.358Z,-0.11
2023-01-20T04:46:59.967Z,-0.15
2023-01-20T04:49:26.476Z,-0.19
2023-01-20T04:51:53.047Z,-0.13
2023-01-20T04:54:19.538Z,-0.12
2023-01-20T04:56:48.809Z,-0.13
2023-01-20T04:59:15.205Z,-0.12
2023-01-20T05:01:41.833Z,-0.10
2023-01-20T05:04:08.355Z,-0.10
2023-01-20T05:06:35.420Z,-0.12
2023-01-20T05:09:01.973Z,-0.12
2023-01-20T05:11:28.458Z,-0.15
2023-01-20T05:13:54.930Z,-0.28
2023-01-20T05:16:24.965Z,-0.27
2023-01-20T05:18:51.384Z,-0.29
2023-01-20T05:21:17.754Z,-0.32
2023-01-20T05:23:44.305Z,-0.33
2023-01-20T05:26:11.383Z,-0.36
2023-01-20T05:28:37.997Z,-0.38
2023-01-20T05:31:04.730Z,-0.50
2023-01-20T05:33:31.337Z,-0.31
2023-01-20T05:35:57.816Z,-0.45
2023-01-20T05:38:24.444Z,-0.56
2023-01-20T05:40:50.875Z,-0.59
2023-01-20T05:43:17.400Z,-0.69
2023-01-20T05:45:43.870Z,-0.67
2023-01-20T05:48:10.551Z,-0.80
2023-01-20T05:50:37.067Z,-0.92
2023-01-20T05:53:03.834Z,-0.96
2023-01-20T05:55:30.274Z,-1.03
2023-01-20T05:57:56.786Z,-1.16
2023-01-20T06:00:23.449Z,-1.30
2023-01-20T06:02:49.993Z,-1.35
2023-01-20T06:05:16.942Z,-1.51
2023-01-20T06:07:43.669Z,-1.54
2023-01-20T06:10:10.818Z,-1.60
2023-01-20T06:12:37.292Z,-1.65
2023-01-20T06:15:04.809Z,-1.56
2023-01-20T06:17:31.243Z,-1.50
2023-01-20T06:19:58.490Z,-1.58
2023-01-20T06:22:25.997Z,-1.59
2023-01-20T06:24:52.420Z,-1.61
2023-01-20T06:27:19.684Z,-1.43
2023-01-20T06:29:46.304Z,-1.49
2023-01-20T06:32:12.781Z,-1.47
2023-01-20T06:34:39.389Z,-1.43
2023-01-20T06:37:07.110Z,-1.40
2023-01-20T06:39:33.556Z,-1.40
2023-01-20T06:42:00.592Z,-1.37
2023-01-20T06:44:27.439Z,-1.28
2023-01-20T06:46:54.240Z,-1.15
2023-01-20T06:49:20.875Z,-1.33
2023-01-20T06:51:48.710Z,-1.24
2023-01-20T06:54:16.355Z,-1.18
2023-01-20T06:56:42.837Z,-1.10
2023-01-20T06:59:11.189Z,-1.09
2023-01-20T07:01:38.208Z,-1.11
2023-01-20T07:04:04.850Z,-0.98
2023-01-20T07:06:34.761Z,-0.90
2023-01-20T07:09:02.041Z,-0.77
2023-01-20T07:11:31.283Z,-0.81
2023-01-20T07:13:59.355Z,-0.76
2023-01-20T07:16:25.867Z,-0.73
2023-01-20T07:18:53.629Z,-0.77
2023-01-20T07:21:20.702Z,-0.62
2023-01-20T07:23:47.948Z,-0.59
2023-01-20T07:26:20.581Z,-0.65
2023-01-20T07:28:48.039Z,-0.72
2023-01-20T07:31:19.307Z,-0.74
2023-01-20T07:33:46.732Z,-0.71
2023-01-20T07:36:14.415Z,-0.70
2023-01-20T07:38:41.067Z,-0.54
2023-01-20T07:41:16.747Z,-0.58
2023-01-20T07:43:47.212Z,-0.49
2023-01-20T07:46:14.255Z,-0.54
2023-01-20T07:48:40.834Z,-0.46
2023-01-20T07:51:10.759Z,-0.48
2023-01-20T07:53:39.899Z,-0.49
2023-01-20T07:56:10.022Z,-0.50
2023-01-20T07:58:36.625Z,-0.45
2023-01-20T08:01:11.347Z,-0.47
2023-01-20T08:03:37.959Z,-0.42
2023-01-20T08:06:05.978Z,-0.44
2023-01-20T08:08:33.045Z,-0.44
2023-01-20T08:11:01.568Z,-0.47
2023-01-20T08:13:32.010Z,-0.35
2023-01-20T08:16:08.126Z,-0.36
2023-01-20T08:18:35.663Z,-0.36
2023-01-20T08:21:08.165Z,-0.30
2023-01-20T08:23:35.879Z,-0.41
2023-01-20T08:26:05.760Z,-0.39
2023-01-20T08:28:36.913Z,-0.27
2023-01-20T08:31:10.313Z,-0.23
2023-01-20T08:33:37.690Z,-0.15
2023-01-20T08:36:06.942Z,-0.09
2023-01-20T08:38:33.717Z,0.08
2023-01-20T08:41:00.206Z,-0.04
2023-01-20T08:43:26.916Z,-0.06
2023-01-20T08:46:08.366Z,-0.01
2023-01-20T08:48:36.206Z,-0.04
2023-01-20T08:51:12.154Z,-0.06
2023-01-20T08:53:38.691Z,-0.02
2023-01-20T08:56:05.611Z,0.16
2023-01-20T08:58:32.387Z,0.14
2023-01-20T09:00:59.786Z,0.30
2023-01-20T09:03:26.500Z,0.19
2023-01-20T09:05:53.287Z,0.22
2023-01-20T09:08:20.800Z,0.25
2023-01-20T09:10:47.549Z,0.12
2023-01-20T09:13:14.608Z,0.20
2023-01-20T09:15:41.211Z,0.22
2023-01-20T09:18:07.654Z,0.40
2023-01-20T09:20:34.341Z,0.32
2023-01-20T09:23:02.737Z,0.36
2023-01-20T09:25:29.203Z,0.53
2023-01-20T09:27:55.829Z,0.48
2023-01-20T09:30:22.246Z,0.37
2023-01-20T09:32:53.041Z,0.40
2023-01-20T09:35:19.423Z,0.40
2023-01-20T09:38:04.638Z,0.49
2023-01-20T09:41:10.736Z,0.51
2023-01-20T09:43:56.861Z,0.54
2023-01-20T09:46:44.716Z,0.58
2023-01-20T09:49:36.443Z,0.68
2023-01-20T09:53:03.263Z,0.61
2023-01-20T09:55:52.130Z,0.77
2023-01-20T09:58:36.995Z,0.88
2023-01-20T10:01:38.783Z,0.80
2023-01-20T10:04:22.710Z,0.81
2023-01-20T10:06:59.530Z,0.86
2023-01-20T10:09:45.952Z,1.00
2023-01-20T10:12:21.985Z,1.01
2023-01-20T10:15:13.366Z,1.20
2023-01-20T10:17:55.211Z,1.27
2023-01-20T10:20:31.920Z,1.29
2023-01-20T10:23:12.280Z,1.22
2023-01-20T10:25:47.428Z,1.27
2023-01-20T10:28:34.899Z,1.35
2023-01-20T10:31:04.310Z,1.37
2023-01-20T10:33:38.698Z,1.26
2023-01-20T10:36:13.747Z,1.30
2023-01-20T10:38:43.236Z,1.10
2023-01-20T10:41:19.590Z,1.20
2023-01-20T10:43:50.134Z,1.18
2023-01-20T10:46:31.293Z,1.22
2023-01-20T10:49:35.214Z,1.36
2023-01-20T10:52:23.347Z,1.15
2023-01-20T10:54:59.210Z,1.08
2023-01-20T10:57:26.176Z,1.15
2023-01-20T11:00:07.466Z,1.12
2023-01-20T11:02:37.842Z,1.17
2023-01-20T11:05:26.119Z,1.23
2023-01-20T11:07:54.416Z,1.24
2023-01-20T11:10:25.075Z,1.17
2023-01-20T11:12:54.924Z,1.18
2023-01-20T11:15:26.208Z,1.17
2023-01-20T11:18:14.436Z,1.15
2023-01-20T11:20:52.748Z,1.12
2023-01-20T11:23:23.843Z,1.13
2023-01-20T11:25:56.600Z,1.06
2023-01-20T11:28:24.460Z,1.18
2023-01-20T11:30:53.789Z,1.19
2023-01-20T11:33:22.208Z,1.28
2023-01-20T11:36:00.080Z,1.31
2023-01-20T11:38:48.342Z,1.28
2023-01-20T11:41:26.678Z,1.35
2023-01-20T11:43:58.650Z,1.35
2023-01-20T11:46:30.045Z,1.38
2023-01-20T11:49:26.158Z,1.21
2023-01-20T11:51:57.168Z,1.12
2023-01-20T11:54:26.981Z,1.08
2023-01-20T11:56:57.120Z,1.14
2023-01-20T11:59:31.985Z,1.16
2023-01-20T12:02:04.534Z,1.28
2023-01-20T12:04:53.699Z,1.26
2023-01-20T12:07:52.438Z,1.29
2023-01-20T12:10:27.067Z,1.37
2023-01-20T12:13:13.731Z,1.41
2023-01-20T12:15:52.996Z,1.42
2023-01-20T12:19:01.691Z,1.45
2023-01-20T12:21:37.238Z,1.50
2023-01-20T12:24:20.821Z,1.50
2023-01-20T12:26:48.039Z,1.41
2023-01-20T12:29:22.607Z,1.46
2023-01-20T12:31:49.568Z,1.53
2023-01-20T12:34:23.184Z,1.50
2023-01-20T12:37:26.934Z,1.45
2023-01-20T12:39:59.215Z,1.52
2023-01-20T12:42:41.337Z,1.35
2023-01-20T12:45:23.863Z,1.34
2023-01-20T12:48:34.971Z,1.33
2023-01-20T12:51:44.771Z,1.38
2023-01-20T12:54:48.315Z,1.36
2023-01-20T12:57:46.551Z,1.45
2023-01-20T13:00:47.103Z,1.42
2023-01-20T13:03:26.101Z,1.44
2023-01-20T13:06:13.672Z,1.42
2023-01-20T13:09:23.733Z,1.42
2023-01-20T13:11:59.251Z,1.35
2023-01-20T13:14:41.130Z,1.41
2023-01-20T13:17:28.181Z,1.32
2023-01-20T13:19:58.995Z,1.40
2023-01-20T13:22:26.173Z,1.46
2023-01-20T13:24:55.484Z,1.58
2023-01-20T13:27:29.088Z,1.61
2023-01-20T13:29:58.286Z,1.58
2023-01-20T13:32:43.124Z,1.68
2023-01-20T13:35:15.948Z,1.71
2023-01-20T13:37:49.271Z,1.53
2023-01-20T13:40:38.471Z,1.70
2023-01-20T13:43:25.315Z,1.56
2023-01-20T13:46:07.193Z,1.46
2023-01-20T13:48:36.115Z,1.45
2023-01-20T13:51:21.349Z,1.55
2023-01-20T13:53:47.923Z,1.56
2023-01-20T13:56:29.120Z,1.37
2023-01-20T13:58:58.173Z,1.40
2023-01-20T14:01:26.247Z,1.38
2023-01-20T14:04:03.768Z,1.40
2023-01-20T14:06:32.986Z,1.30
2023-01-20T14:09:01.388Z,1.33
2023-01-20T14:11:29.486Z,1.28
2023-01-20T14:13:57.013Z,1.14
2023-01-20T14:16:29.030Z,1.04
2023-01-20T14:18:59.083Z,1.12
2023-01-20T14:21:28.067Z,1.01
2023-01-20T14:23:54.523Z,0.96
2023-01-20T14:26:22.757Z,0.94
2023-01-20T14:28:52.533Z,0.80
2023-01-20T14:31:22.988Z,0.74
2023-01-20T14:34:03.671Z,0.73
2023-01-20T14:36:32.954Z,0.74
2023-01-20T14:39:04.064Z,0.74
2023-01-20T14:41:46.940Z,0.77
2023-01-20T14:44:24.222Z,0.74
2023-01-20T14:46:54.037Z,0.61
2023-01-20T14:49:22.867Z,0.55
2023-01-20T14:51:50.519Z,0.56
2023-01-20T14:54:44.235Z,0.52
2023-01-20T14:57:16.748Z,0.58
2023-01-20T14:59:44.100Z,0.59
2023-01-20T15:02:30.568Z,0.55
2023-01-20T15:04:57.160Z,0.51
2023-01-20T15:07:25.366Z,0.39
2023-01-20T15:10:08.646Z,0.39
2023-01-20T15:12:39.561Z,0.46
2023-01-20T15:15:06.282Z,0.36
2023-01-20T15:17:33.225Z,0.34
2023-01-20T15:19:59.900Z,0.33
2023-01-20T15:22:27.612Z,0.35
2023-01-20T15:24:54.631Z,0.23
2023-01-20T15:27:23.963Z,0.24
2023-01-20T15:30:18.700Z,0.23
2023-01-20T15:32:47.459Z,0.09
2023-01-20T15:35:16.247Z,0.07
2023-01-20T15:37:44.091Z,0.02
2023-01-20T15:40:19.298Z,0.12
2023-01-20T15:42:47.251Z,0.03
2023-01-20T15:45:14.987Z,0.04
2023-01-20T15:47:42.550Z,0.01
2023-01-20T15:50:15.190Z,-0.11
2023-01-20T15:52:42.135Z,-0.10
2023-01-20T15:55:13.019Z,-0.07
2023-01-20T15:57:40.273Z,-0.10
2023-01-20T16:00:07.763Z,-0.21
2023-01-20T16:02:34.232Z,-0.19
2023-01-20T16:05:00.793Z,-0.13
2023-01-20T16:07:27.926Z,-0.31
2023-01-20T16:09:54.389Z,-0.29
2023-01-20T16:12:20.962Z,-0.30
2023-01-20T16:14:47.585Z,-0.25
2023-01-20T16:17:16.443Z,-0.33
2023-01-20T16:19:42.960Z,-0.34
2023-01-20T16:22:10.489Z,-0.34
2023-01-20T16:24:37.924Z,-0.35
2023-01-20T16:27:19.786Z,-0.45
2023-01-20T16:29:46.724Z,-0.36
2023-01-20T16:32:16.695Z,-0.43
2023-01-20T16:34:44.177Z,-0.40
2023-01-20T16:37:14.224Z,-0.49
2023-01-20T16:39:40.671Z,-0.45
2023-01-20T16:42:13.269Z,-0.47
2023-01-20T16:44:39.826Z,-0.23
2023-01-20T16:47:08.189Z,-0.40
2023-01-20T16:49:34.568Z,-0.41
2023-01-20T16:52:01.202Z,-0.47
2023-01-20T16:54:27.640Z,-0.48
2023-01-20T16:56:54.224Z,-0.46
2023-01-20T16:59:20.717Z,-0.55
2023-01-20T17:01:48.864Z,-0.59
2023-01-20T17:04:15.535Z,-0.67
2023-01-20T17:06:43.068Z,-0.72
2023-01-20T17:09:09.992Z,-0.78
2023-01-20T17:11:42.867Z,-0.63
2023-01-20T17:14:11.092Z,-0.79
2023-01-20T17:16:38.711Z,-0.84
2023-01-20T17:19:05.857Z,-0.88
2023-01-20T17:21:34.459Z,-0.89
2023-01-20T17:24:03.353Z,-0.88
2023-01-20T17:26:30.591Z,-0.87
2023-01-20T17:29:00.173Z,-0.92
2023-01-20T17:31:28.102Z,-0.99
2023-01-20T17:33:54.558Z,-1.00
2023-01-20T17:36:21.089Z,-0.99
2023-01-20T17:38:47.502Z,-0.97
2023-01-20T17:41:14.794Z,-0.93
2023-01-20T17:43:48.144Z,-0.92
2023-01-20T17:46:20.547Z,-0.88
2023-01-20T17:48:47.267Z,-0.90
2023-01-20T17:51:22.809Z,-0.91
2023-01-20T17:53:50.339Z,-0.92
2023-01-20T17:56:19.263Z,-0.89
2023-01-20T17:58:46.777Z,-0.96
2023-01-20T18:01:24.255Z,-0.90
2023-01-20T18:03:53.160Z,-0.86
2023-01-20T18:06:21.839Z,-0.85
2023-01-20T18:08:53.569Z,-0.80
2023-01-20T18:11:22.792Z,-0.76
2023-01-20T18:13:51.696Z,-0.70
2023-01-20T18:16:20.518Z,-0.60
2023-01-20T18:18:48.153Z,-0.66
2023-01-20T18:21:24.940Z,-0.65
2023-01-20T18:23:52.003Z,-0.65
2023-01-20T18:26:21.499Z,-0.64
2023-01-20T18:28:48.686Z,-0.70
2023-01-20T18:31:20.234Z,-0.61
2023-01-20T18:33:49.570Z,-0.52
2023-01-20T18:36:25.375Z,-0.55
2023-01-20T18:39:01.168Z,-0.45
2023-01-20T18:41:29.768Z,-0.46
2023-01-20T18:43:57.928Z,-0.32
2023-01-20T18:46:25.819Z,-0.41
2023-01-20T18:48:55.255Z,-0.42
2023-01-20T18:51:27.613Z,-0.43
2023-01-20T18:54:00.372Z,-0.39
2023-01-20T18:56:28.366Z,-0.32
2023-01-20T18:58:55.979Z,-0.24
2023-01-20T19:01:26.009Z,-0.31
2023-01-20T19:03:53.445Z,-0.47
2023-01-20T19:06:22.560Z,-0.43
2023-01-20T19:08:49.961Z,-0.60
2023-01-20T19:11:20.697Z,-0.57
2023-01-20T19:13:51.185Z,-0.59
2023-01-20T19:16:19.077Z,-0.58
2023-01-20T19:18:51.293Z,-0.65
2023-01-20T19:21:17.771Z,-0.70
2023-01-20T19:23:48.866Z,-0.76
2023-01-20T19:26:18.566Z,-0.86
2023-01-20T19:28:46.687Z,-0.88
2023-01-20T19:31:18.341Z,-0.92
2023-01-20T19:33:46.080Z,-1.01
2023-01-20T19:36:16.445Z,-1.09
2023-01-20T19:38:43.114Z,-1.15
2023-01-20T19:41:19.514Z,-1.33
2023-01-20T19:43:46.554Z,-1.43
2023-01-20T19:46:18.568Z,-1.46
2023-01-20T19:48:45.181Z,-1.58
2023-01-20T19:51:15.263Z,-1.64
2023-01-20T19:53:43.415Z,-1.72
2023-01-20T19:56:15.814Z,-1.84
2023-01-20T19:58:43.431Z,-1.92
2023-01-20T20:01:13.589Z,-1.79
2023-01-20T20:03:40.322Z,-1.78
2023-01-20T20:06:17.732Z,-1.95
2023-01-20T20:08:46.641Z,-2.04
2023-01-20T20:11:13.128Z,-2.09
2023-01-20T20:13:39.554Z,-2.14
2023-01-20T20:16:06.483Z,-2.16
2023-01-20T20:18:33.259Z,-2.23
2023-01-20T20:20:59.774Z,-2.28
2023-01-20T20:23:26.709Z,-2.31
2023-01-20T20:25:57.426Z,-2.28
2023-01-20T20:28:28.346Z,-2.27
2023-01-20T20:30:58.259Z,-2.28
2023-01-20T20:33:24.909Z,-2.26
2023-01-20T20:35:51.537Z,-2.29
2023-01-20T20:38:17.922Z,-2.30
2023-01-20T20:40:44.567Z,-2.47
2023-01-20T20:43:10.985Z,-2.40
2023-01-20T20:45:37.614Z,-2.38
2023-01-20T20:48:04.660Z,-2.32
2023-01-20T20:50:31.502Z,-2.12
2023-01-20T20:52:58.941Z,-1.97
2023-01-20T20:55:28.237Z,-1.76
2023-01-20T20:57:54.710Z,-1.54
2023-01-20T21:00:23.532Z,-1.44
2023-01-20T21:02:50.297Z,-1.24
2023-01-20T21:05:18.858Z,-1.21
2023-01-20T21:07:45.822Z,-1.09
2023-01-20T21:10:15.668Z,-1.13
2023-01-20T21:12:44.258Z,-1.06
2023-01-20T21:15:11.694Z,-1.07
2023-01-20T21:17:38.799Z,-1.05
2023-01-20T21:20:06.952Z,-1.08
2023-01-20T21:22:34.256Z,-1.07
2023-01-20T21:25:00.838Z,-1.04
2023-01-20T21:27:27.384Z,-1.12
2023-01-20T21:29:54.153Z,-1.13
2023-01-20T21:32:20.746Z,-1.15
2023-01-20T21:34:47.346Z,-1.15
2023-01-20T21:37:13.898Z,-1.15
2023-01-20T21:39:40.414Z,-1.14
2023-01-20T21:42:07.525Z,-1.00
2023-01-20T21:44:36.482Z,-0.95
2023-01-20T21:47:05.480Z,-1.09
2023-01-20T21:49:51.181Z,-1.20
2023-01-20T21:52:38.976Z,-1.41
2023-01-20T21:55:06.922Z,-1.56
2023-01-20T21:57:33.501Z,-1.69
2023-01-20T22:00:00.980Z,-1.72
2023-01-20T22:02:28.695Z,-1.75
2023-01-20T22:04:55.852Z,-1.85
2023-01-20T22:07:24.499Z,-1.92
2023-01-20T22:09:51.030Z,-1.93
2023-01-20T22:12:17.706Z,-1.83
2023-01-20T22:14:44.209Z,-1.92
2023-01-20T22:17:11.851Z,-1.87
2023-01-20T22:19:39.080Z,-1.88
2023-01-20T22:22:06.225Z,-2.01
2023-01-20T22:24:33.057Z,-2.03
2023-01-20T22:26:59.848Z,-2.07
2023-01-20T22:29:26.315Z,-2.13
2023-01-20T22:31:54.452Z,-2.13
2023-01-20T22:34:21.531Z,-2.24
2023-01-20T22:36:48.251Z,-2.05
2023-01-20T22:39:15.264Z,-2.20
2023-01-20T22:41:41.860Z,-2.27
2023-01-20T22:44:08.496Z,-2.30
2023-01-20T22:46:35.041Z,-2.33
2023-01-20T22:49:01.568Z,-2.33
2023-01-20T22:51:29.742Z,-2.38
2023-01-20T22:53:57.875Z,-2.40
2023-01-20T22:56:27.313Z,-2.45
2023-01-20T22:58:55.791Z,-2.52
2023-01-20T23:01:33.447Z,-2.65
2023-01-20T23:04:02.689Z,-2.70
2023-01-20T23:06:32.454Z,-2.83
2023-01-20T23:09:00.977Z,-2.83
2023-01-20T23:11:27.594Z,-2.77
2023-01-20T23:13:54.105Z,-2.84
2023-01-20T23:16:22.561Z,-2.88
2023-01-20T23:18:50.712Z,-2.88
2023-01-20T23:21:17.822Z,-2.92
2023-01-20T23:23:44.795Z,-2.80
2023-01-20T23:26:17.748Z,-2.66
2023-01-20T23:28:45.309Z,-2.48
2023-01-20T23:31:14.870Z,-2.31
2023-01-20T23:33:43.990Z,-2.28
2023-01-20T23:36:20.103Z,-2.28
2023-01-20T23:38:46.574Z,-2.20
2023-01-20T23:41:14.454Z,-2.23
2023-01-20T23:43:41.629Z,-2.28
2023-01-20T23:46:09.404Z,-2.33
2023-01-20T23:48:36.704Z,-2.39
2023-01-20T23:51:03.975Z,-2.44
2023-01-20T23:53:32.197Z,-2.40
2023-01-20T23:56:03.986Z,-2.25
2023-01-20T23:58:30.979Z,-2.35
